Time;durP1;ratioP1;P1;durP2;ratioP2;P2;SDS_P1;SDS_P2;PMS_P1;PMS_P2;Temp;Humidity;BMP_temperature;BMP_pressure;BME280_temperature;BME280_humidity;BME280_pressure;Samples;Min_cycle;Max_cycle;Signal;HPM_P1;HPM_P2
2021/08/26 00:00:31;;;;;;;1.57;0.60;;;;;;;12.11;79.98;100025.94;4972974;28;20201;-68
2021/08/26 00:05:51;;;;;;;8.77;6.87;;;;;;;12.21;79.21;100025.13;4997994;28;20192;-69
2021/08/26 00:08:20;;;;;;;3.17;2.60;;;;;;;12.17;79.96;100027.25;4991439;28;20225;-68
2021/08/26 00:10:51;;;;;;;1.90;1.80;;;;;;;12.10;80.39;100018.84;4991380;28;20197;-68
2021/08/26 00:13:21;;;;;;;2.63;2.43;;;;;;;12.17;79.39;100024.56;4990952;28;20699;-68
2021/08/26 00:15:50;;;;;;;1.10;1.10;;;;;;;12.10;80.05;100018.84;4990968;28;20203;-68
2021/08/26 00:18:21;;;;;;;2.00;1.90;;;;;;;12.10;80.53;100023.38;5006305;28;20208;-68
2021/08/26 00:20:52;;;;;;;1.63;1.53;;;;;;;12.08;80.89;100020.81;4991934;28;20203;-69
2021/08/26 00:23:21;;;;;;;1.97;1.87;;;;;;;12.10;81.74;100018.00;4990281;28;20713;-70
2021/08/26 00:25:49;;;;;;;1.07;1.07;;;;;;;12.09;81.35;100027.91;4987685;28;20215;-69
2021/08/26 00:28:18;;;;;;;0.20;0.20;;;;;;;11.98;81.08;100011.84;4991435;28;20209;-68
2021/08/26 00:30:46;;;;;;;0.20;0.20;;;;;;;12.06;80.80;100014.72;4976853;28;20449;-70
2021/08/26 00:33:14;;;;;;;0.47;0.33;;;;;;;12.00;81.38;100022.47;4980409;28;20220;-70
2021/08/26 00:35:42;;;;;;;0.43;0.40;;;;;;;11.95;81.84;100025.56;4988541;28;20575;-70
2021/08/26 00:38:12;;;;;;;0.20;0.20;;;;;;;11.97;81.22;100007.44;4990421;28;20264;-70
2021/08/26 00:40:40;;;;;;;0.33;0.33;;;;;;;12.06;79.91;100022.78;4998106;28;20210;-70
2021/08/26 00:43:08;;;;;;;0.20;0.20;;;;;;;11.96;81.29;100015.66;4981583;28;20202;-70
2021/08/26 00:45:36;;;;;;;0.40;0.33;;;;;;;11.94;81.67;100015.78;4987142;28;20204;-70
2021/08/26 00:48:04;;;;;;;2.00;0.30;;;;;;;11.97;81.80;100017.34;4986319;28;20269;-69
2021/08/26 00:50:33;;;;;;;0.10;0.10;;;;;;;11.97;82.32;100009.28;4987482;28;20276;-69
2021/08/26 00:53:01;;;;;;;1.13;0.20;;;;;;;11.90;82.21;100011.63;4990731;28;20202;-69
2021/08/26 00:55:30;;;;;;;4.00;0.30;;;;;;;11.96;81.46;100021.03;4990958;28;20194;-69
2021/08/26 00:57:58;;;;;;;0.20;0.20;;;;;;;11.83;83.10;100021.19;4988798;28;20218;-69
2021/08/26 01:00:27;;;;;;;1.50;0.10;;;;;;;11.89;82.78;100015.28;4980578;28;20210;-69
2021/08/26 01:03:04;;;;;;;0.30;0.30;;;;;;;11.88;82.24;100007.34;4979927;28;20302;-69
2021/08/26 01:05:45;;;;;;;0.20;0.20;;;;;;;11.95;81.91;100028.25;4982331;28;20232;-69
2021/08/26 01:08:20;;;;;;;0.10;0.10;;;;;;;11.83;82.85;100007.75;4987777;28;20200;-69
2021/08/26 01:10:56;;;;;;;0.10;0.10;;;;;;;11.83;83.76;100021.19;4983102;28;20221;-69
2021/08/26 01:13:32;;;;;;;0.20;0.13;;;;;;;11.92;82.95;100015.03;4990297;28;20208;-69
2021/08/26 01:16:05;;;;;;;2.97;0.30;;;;;;;11.87;83.33;100016.41;4976324;28;20200;-68
2021/08/26 01:18:35;;;;;;;0.20;0.20;;;;;;;11.82;83.54;100025.72;4987107;28;20284;-69
2021/08/26 01:21:03;;;;;;;0.10;0.10;;;;;;;11.88;83.27;100016.28;4988379;28;20208;-69
2021/08/26 01:23:34;;;;;;;0.10;0.10;;;;;;;11.83;83.05;100021.19;4989280;28;20256;-69
2021/08/26 01:26:05;;;;;;;0.93;0.30;;;;;;;11.87;82.95;100014.56;4982465;28;20200;-69
2021/08/26 01:28:37;;;;;;;0.10;0.10;;;;;;;11.85;83.36;100013.84;4974323;28;20214;-69
2021/08/26 01:31:06;;;;;;;0.17;0.17;;;;;;;11.90;83.37;100017.00;4989256;28;20212;-69
2021/08/26 01:33:34;;;;;;;0.20;0.20;;;;;;;11.82;83.88;100019.50;4988419;28;20219;-69
2021/08/26 01:36:04;;;;;;;0.30;0.20;;;;;;;11.79;84.20;100012.53;4988003;28;20227;-69
2021/08/26 01:38:32;;;;;;;0.30;0.30;;;;;;;11.73;84.58;100009.47;4988791;28;20583;-69
2021/08/26 01:41:00;;;;;;;0.23;0.10;;;;;;;11.87;83.81;100021.78;4976224;28;20621;-69
2021/08/26 01:43:33;;;;;;;1.23;0.47;;;;;;;11.64;84.30;99986.06;4980882;28;20232;-69
2021/08/26 01:46:02;;;;;;;0.20;0.20;;;;;;;11.81;84.85;100023.16;4985233;28;20201;-69
2021/08/26 01:48:30;;;;;;;0.33;0.33;;;;;;;11.78;85.32;100020.75;4992859;28;20200;-69
2021/08/26 01:50:58;;;;;;;0.30;0.30;;;;;;;11.78;85.37;100023.44;4989797;28;20262;-68
2021/08/26 01:53:26;;;;;;;0.00;0.00;;;;;;;11.61;85.79;99991.69;4979158;28;20268;-69
2021/08/26 01:55:54;;;;;;;0.40;0.40;;;;;;;11.80;85.03;100016.94;4989885;28;20258;-68
2021/08/26 01:58:22;;;;;;;0.20;0.20;;;;;;;11.77;85.56;100013.63;4979471;28;20262;-68
2021/08/26 02:00:52;;;;;;;0.20;0.20;;;;;;;11.69;86.49;100008.91;4975183;28;20216;-68
2021/08/26 02:03:20;;;;;;;0.30;0.30;;;;;;;11.56;86.43;99994.75;4983827;28;20723;-68
2021/08/26 02:05:48;;;;;;;0.30;0.30;;;;;;;11.71;86.32;100022.22;4984251;28;20200;-68
2021/08/26 02:08:16;;;;;;;0.10;0.10;;;;;;;11.76;86.66;100020.84;4988590;28;20205;-68
2021/08/26 02:10:44;;;;;;;0.30;0.30;;;;;;;11.78;86.68;100015.34;4982439;28;20210;-68
2021/08/26 02:13:12;;;;;;;0.30;0.30;;;;;;;11.75;87.09;100015.59;4978960;28;20277;-68
2021/08/26 02:15:40;;;;;;;0.20;0.20;;;;;;;11.88;85.81;100018.13;4988145;28;20702;-68
2021/08/26 02:18:10;;;;;;;0.10;0.10;;;;;;;11.78;86.89;100007.28;5004622;28;20196;-69
2021/08/26 02:20:38;;;;;;;0.10;0.10;;;;;;;11.82;86.71;100020.34;4974837;28;20205;-69
2021/08/26 02:23:06;;;;;;;0.20;0.20;;;;;;;11.78;86.11;100008.16;4984109;28;20207;-69
2021/08/26 02:25:34;;;;;;;0.20;0.20;;;;;;;11.84;86.55;100033.66;4985892;28;20264;-69
2021/08/26 02:28:02;;;;;;;0.10;0.10;;;;;;;11.79;86.87;100030.50;4989821;28;20201;-68
2021/08/26 02:30:30;;;;;;;2.20;0.13;;;;;;;11.92;86.65;100027.63;4984249;28;20203;-68
2021/08/26 02:32:58;;;;;;;0.10;0.10;;;;;;;11.89;87.21;100026.06;4986156;28;20449;-68
2021/08/26 02:35:27;;;;;;;0.20;0.20;;;;;;;11.93;86.95;100027.50;4988537;28;20698;-68
2021/08/26 02:37:55;;;;;;;0.10;0.10;;;;;;;11.99;86.57;100027.00;4978872;28;20211;-69
2021/08/26 02:40:23;;;;;;;0.10;0.10;;;;;;;11.89;86.59;100023.38;4987336;28;20206;-68
2021/08/26 02:42:52;;;;;;;0.10;0.10;;;;;;;12.02;86.38;100029.44;4989187;28;20245;-68
2021/08/26 02:45:20;;;;;;;0.10;0.10;;;;;;;11.70;86.77;99981.00;4985756;28;20246;-68
2021/08/26 02:47:48;;;;;;;0.10;0.10;;;;;;;12.10;85.91;100029.63;4998071;28;20214;-68
2021/08/26 02:50:16;;;;;;;0.13;0.13;;;;;;;12.10;85.64;100036.84;4989757;28;20639;-68
2021/08/26 02:52:46;;;;;;;0.10;0.10;;;;;;;12.18;85.67;100041.56;4999644;28;20285;-68
2021/08/26 02:55:14;;;;;;;1210.73;645.10;;;;;;;12.13;85.98;100034.72;4985901;28;22948;-68
2021/08/26 02:57:42;;;;;;;7.47;6.43;;;;;;;12.11;85.74;100034.00;4992644;28;20199;-69
2021/08/26 03:00:11;;;;;;;1.80;1.70;;;;;;;12.15;86.35;100031.06;4992272;28;20214;-68
2021/08/26 03:02:39;;;;;;;0.80;0.80;;;;;;;12.21;86.20;100030.53;4992188;28;20241;-68
2021/08/26 03:05:08;;;;;;;3.13;2.93;;;;;;;12.24;86.39;100041.03;4981589;28;20711;-68
2021/08/26 03:07:36;;;;;;;4.63;4.33;;;;;;;12.35;85.74;100041.81;4992259;28;20203;-68
2021/08/26 03:10:07;;;;;;;4.30;3.70;;;;;;;12.39;85.43;100037.03;4989329;28;20211;-68
2021/08/26 03:12:35;;;;;;;2.33;2.13;;;;;;;12.43;85.36;100042.00;4996125;28;20200;-69
2021/08/26 03:15:03;;;;;;;0.37;0.37;;;;;;;12.22;85.66;100026.84;4980932;28;20240;-68
2021/08/26 03:17:31;;;;;;;0.80;0.80;;;;;;;12.44;85.09;100042.84;4988138;28;20200;-68
2021/08/26 03:19:59;;;;;;;3.07;2.80;;;;;;;12.49;85.26;100051.38;4996147;28;20196;-68
2021/08/26 03:22:27;;;;;;;3.13;2.57;;;;;;;12.49;84.38;100042.44;5000372;28;20215;-68
2021/08/26 03:24:55;;;;;;;0.60;0.60;;;;;;;12.47;85.10;100057.91;4978036;28;20198;-68
2021/08/26 03:27:24;;;;;;;1.60;1.50;;;;;;;12.41;85.37;100054.75;5007509;28;20249;-68
2021/08/26 03:29:52;;;;;;;3.13;2.83;;;;;;;12.48;85.40;100054.22;4992117;28;20209;-68
2021/08/26 03:32:21;;;;;;;3.70;3.30;;;;;;;12.59;84.51;100060.38;4991816;28;20270;-68
2021/08/26 03:34:49;;;;;;;0.20;0.20;;;;;;;12.49;85.77;100061.31;4983221;28;20704;-68
2021/08/26 03:37:17;;;;;;;0.40;0.40;;;;;;;12.36;85.26;100042.69;4991509;28;20195;-68
2021/08/26 03:39:45;;;;;;;0.10;0.10;;;;;;;12.52;85.20;100061.03;4989943;28;20201;-69
2021/08/26 03:42:13;;;;;;;0.27;0.27;;;;;;;12.37;86.72;100056.00;4980610;28;20203;-69
2021/08/26 03:44:43;;;;;;;0.10;0.10;;;;;;;12.35;86.87;100060.69;4992212;28;20201;-69
2021/08/26 03:47:11;;;;;;;2.27;0.30;;;;;;;12.36;86.48;100056.13;4979754;28;20264;-69
2021/08/26 03:49:39;;;;;;;0.30;0.30;;;;;;;12.44;86.04;100065.25;4991330;28;20202;-67
2021/08/26 03:52:07;;;;;;;0.20;0.20;;;;;;;12.46;86.34;100072.34;4993285;28;20282;-68
2021/08/26 03:54:36;;;;;;;0.23;0.23;;;;;;;12.39;86.54;100066.66;4978026;28;20721;-67
2021/08/26 03:57:05;;;;;;;0.37;0.30;;;;;;;12.51;86.16;100070.94;4985656;28;20206;-68
2021/08/26 03:59:33;;;;;;;0.17;0.17;;;;;;;12.54;85.54;100065.28;4978066;28;20614;-68
2021/08/26 04:02:02;;;;;;;0.23;0.20;;;;;;;12.49;86.11;100066.69;4981385;28;20201;-68
2021/08/26 04:04:31;;;;;;;0.10;0.10;;;;;;;12.53;86.12;100060.91;4977493;28;20711;-68
2021/08/26 04:06:59;;;;;;;0.20;0.20;;;;;;;12.58;85.95;100066.78;4978113;28;20410;-68
2021/08/26 04:09:27;;;;;;;0.20;0.20;;;;;;;12.53;86.45;100074.38;4979339;28;20561;-69
2021/08/26 04:11:55;;;;;;;0.00;0.00;;;;;;;12.50;86.68;100076.47;4978115;28;20204;-68
2021/08/26 04:14:23;;;;;;;0.30;0.30;;;;;;;12.48;86.38;100064.97;4980257;28;20204;-68
2021/08/26 04:16:51;;;;;;;0.17;0.17;;;;;;;12.53;86.50;100085.13;4975715;28;20223;-69
2021/08/26 04:19:20;;;;;;;1.07;0.20;;;;;;;12.53;86.59;100079.75;4976508;28;20234;-68
2021/08/26 04:21:48;;;;;;;2.30;0.10;;;;;;;12.55;87.49;100085.88;5003160;28;20274;-68
2021/08/26 04:24:16;;;;;;;0.10;0.10;;;;;;;12.50;87.69;100081.88;4983081;28;20205;-68
2021/08/26 04:26:44;;;;;;;0.10;0.10;;;;;;;12.58;87.27;100088.31;4973767;28;20195;-68
2021/08/26 04:29:13;;;;;;;0.20;0.20;;;;;;;12.39;87.23;100061.25;5000023;28;20246;-68
2021/08/26 04:31:41;;;;;;;0.20;0.20;;;;;;;12.50;87.15;100079.16;4986335;28;20286;-68
2021/08/26 04:34:09;;;;;;;0.10;0.10;;;;;;;12.54;87.38;100089.53;4989751;28;20675;-68
2021/08/26 04:36:38;;;;;;;0.10;0.10;;;;;;;12.49;87.84;100089.09;4989712;28;20224;-68
2021/08/26 04:39:06;;;;;;;0.13;0.13;;;;;;;12.65;87.32;100089.47;4988803;28;20683;-68
2021/08/26 04:41:35;;;;;;;0.30;0.20;;;;;;;12.65;86.69;100102.09;4991400;28;20202;-68
2021/08/26 04:44:03;;;;;;;0.30;0.30;;;;;;;12.64;87.12;100103.09;4988550;28;20203;-68
2021/08/26 04:46:31;;;;;;;1.90;0.30;;;;;;;12.68;86.88;100100.00;4998294;28;20256;-68
2021/08/26 04:48:59;;;;;;;0.13;0.13;;;;;;;12.66;86.51;100095.72;4980514;28;20292;-68
2021/08/26 04:51:27;;;;;;;0.20;0.20;;;;;;;12.73;86.84;100113.91;4997634;28;20226;-69
2021/08/26 04:53:57;;;;;;;2.17;0.30;;;;;;;12.71;86.48;100106.94;4983305;28;20210;-69
2021/08/26 04:56:25;;;;;;;0.20;0.20;;;;;;;12.79;85.95;100107.13;4986686;28;20254;-69
2021/08/26 04:58:53;;;;;;;0.63;0.33;;;;;;;12.83;86.05;100113.94;4985388;28;20207;-69
2021/08/26 05:01:21;;;;;;;1.50;0.40;;;;;;;12.78;86.65;100104.56;4981035;28;20500;-70
2021/08/26 05:03:50;;;;;;;0.67;0.30;;;;;;;12.87;86.58;100111.88;4983389;28;20653;-68
2021/08/26 05:06:18;;;;;;;0.20;0.20;;;;;;;12.88;86.39;100105.50;4985633;28;20208;-69
2021/08/26 05:08:46;;;;;;;0.23;0.23;;;;;;;12.73;86.34;100100.44;4979896;28;20209;-66
2021/08/26 05:11:22;;;;;;;0.77;0.27;;;;;;;12.92;86.23;100113.16;4979863;28;20203;-64
2021/08/26 05:13:50;;;;;;;0.23;0.23;;;;;;;12.84;86.21;100117.50;4983200;28;20615;-64
2021/08/26 05:16:18;;;;;;;0.30;0.30;;;;;;;12.80;86.33;100113.38;4975431;28;20227;-64
2021/08/26 05:18:47;;;;;;;0.30;0.30;;;;;;;12.93;85.79;100124.81;4972669;28;20210;-65
2021/08/26 05:21:15;;;;;;;0.20;0.20;;;;;;;13.02;85.57;100127.53;4982312;28;20200;-65
2021/08/26 05:23:43;;;;;;;0.30;0.30;;;;;;;12.97;84.59;100112.75;4977650;28;20259;-65
2021/08/26 05:26:13;;;;;;;0.30;0.30;;;;;;;12.90;85.10;100103.50;4980187;28;20195;-65
2021/08/26 05:28:43;;;;;;;2.90;0.50;;;;;;;12.83;84.74;100086.16;4977010;28;20248;-66
2021/08/26 05:31:11;;;;;;;0.30;0.30;;;;;;;12.88;84.47;100087.47;4977533;28;20199;-65
2021/08/26 05:33:39;;;;;;;0.40;0.40;;;;;;;13.14;84.46;100127.44;4977117;28;20535;-65
2021/08/26 05:36:07;;;;;;;0.30;0.30;;;;;;;13.21;84.60;100132.19;4985917;28;20223;-65
2021/08/26 05:38:36;;;;;;;0.30;0.30;;;;;;;13.23;83.79;100135.63;4988568;28;20740;-65
2021/08/26 05:41:04;;;;;;;0.53;0.40;;;;;;;13.22;84.77;100131.22;4989149;28;20662;-65
2021/08/26 05:43:32;;;;;;;0.43;0.33;;;;;;;13.29;83.89;100140.47;4990392;28;20195;-65
2021/08/26 05:46:04;;;;;;;0.40;0.40;;;;;;;13.14;84.49;100116.66;4990061;28;20799;-65
2021/08/26 05:48:33;;;;;;;0.30;0.30;;;;;;;13.28;84.34;100138.75;4989774;28;20211;-65
2021/08/26 05:51:01;;;;;;;2.83;0.60;;;;;;;13.31;83.89;100130.38;4983315;28;20205;-66
2021/08/26 05:53:29;;;;;;;0.53;0.50;;;;;;;13.23;84.13;100143.69;4986479;28;20670;-65
2021/08/26 05:55:57;;;;;;;0.33;0.33;;;;;;;13.08;86.31;100150.41;4971187;28;20366;-65
2021/08/26 05:58:25;;;;;;;0.50;0.50;;;;;;;13.22;85.35;100158.19;4993095;28;20276;-65
2021/08/26 06:00:53;;;;;;;0.30;0.30;;;;;;;13.06;84.69;100130.81;4985491;28;20198;-65
2021/08/26 06:03:23;;;;;;;0.33;0.33;;;;;;;13.29;83.45;100164.72;4990102;28;20239;-65
2021/08/26 06:05:51;;;;;;;0.47;0.47;;;;;;;13.33;84.21;100170.69;4981388;28;20706;-65
2021/08/26 06:08:19;;;;;;;0.47;0.47;;;;;;;13.27;84.31;100171.25;4988933;28;20200;-65
2021/08/26 06:10:47;;;;;;;2.40;0.57;;;;;;;13.23;85.63;100181.47;4988039;28;20212;-67
2021/08/26 06:13:15;;;;;;;0.50;0.50;;;;;;;13.14;86.44;100176.81;4989283;28;20198;-65
2021/08/26 06:15:44;;;;;;;0.23;0.23;;;;;;;13.20;86.58;100176.34;4982692;28;20195;-66
2021/08/26 06:18:12;;;;;;;944.17;516.63;;;;;;;13.26;85.92;100173.09;4988553;28;20261;-66
2021/08/26 06:20:42;;;;;;;36.20;23.27;;;;;;;12.92;84.59;100102.38;4992685;28;20233;-65
2021/08/26 06:23:10;;;;;;;3.87;3.27;;;;;;;13.30;85.87;100182.63;5000298;28;20237;-66
2021/08/26 06:25:38;;;;;;;1.40;1.30;;;;;;;13.32;86.40;100190.56;4995987;28;20654;-66
2021/08/26 06:28:06;;;;;;;4.27;3.97;;;;;;;13.38;86.38;100189.16;4989425;28;20218;-66
2021/08/26 06:30:35;;;;;;;2.73;2.57;;;;;;;13.41;86.20;100195.16;4992800;28;20192;-66
2021/08/26 06:33:04;;;;;;;3.83;3.53;;;;;;;13.29;86.38;100172.81;4990788;28;20258;-66
2021/08/26 06:35:32;;;;;;;5.27;1.00;;;;;;;13.46;86.27;100210.91;4993112;28;20259;-66
2021/08/26 06:38:01;;;;;;;3.93;3.37;;;;;;;13.43;87.09;100203.09;5004726;28;20367;-66
2021/08/26 06:40:30;;;;;;;11.33;7.57;;;;;;;13.48;87.19;100217.06;4996733;28;20637;-65
2021/08/26 06:42:58;;;;;;;0.50;0.50;;;;;;;13.41;87.58;100213.16;4988440;28;20254;-66
2021/08/26 06:45:26;;;;;;;0.57;0.57;;;;;;;13.44;87.06;100215.59;4992136;28;20209;-66
2021/08/26 06:47:54;;;;;;;2.27;0.70;;;;;;;13.55;85.74;100229.88;4993209;28;20199;-65
2021/08/26 06:50:23;;;;;;;0.53;0.53;;;;;;;13.52;86.67;100229.28;4986393;28;20204;-65
2021/08/26 06:52:51;;;;;;;0.60;0.60;;;;;;;13.44;87.18;100237.16;4989829;28;20204;-66
2021/08/26 06:55:21;;;;;;;2.37;0.50;;;;;;;13.43;88.17;100230.06;4995478;28;20673;-66
2021/08/26 06:57:49;;;;;;;0.40;0.40;;;;;;;13.46;87.55;100244.13;4992357;28;20230;-66
2021/08/26 07:00:17;;;;;;;0.50;0.50;;;;;;;13.40;88.01;100241.13;4992904;28;20732;-66
2021/08/26 07:02:46;;;;;;;4.37;0.70;;;;;;;13.43;88.21;100248.94;4991970;28;20238;-65
2021/08/26 07:05:14;;;;;;;0.57;0.57;;;;;;;13.48;88.78;100252.97;4988167;28;20651;-66
2021/08/26 07:07:42;;;;;;;0.50;0.50;;;;;;;13.57;87.64;100257.56;4983209;28;20200;-65
2021/08/26 07:10:11;;;;;;;3.70;0.60;;;;;;;13.54;88.36;100255.13;4992029;28;20209;-66
2021/08/26 07:12:40;;;;;;;0.70;0.70;;;;;;;13.49;88.80;100264.63;4992849;28;20721;-66
2021/08/26 07:15:09;;;;;;;0.50;0.50;;;;;;;13.55;88.16;100256.00;5007367;28;20219;-65
2021/08/26 07:17:37;;;;;;;0.83;0.40;;;;;;;13.56;88.96;100263.09;4992625;28;20548;-65
2021/08/26 07:20:08;;;;;;;0.70;0.70;;;;;;;13.52;88.95;100261.66;4992749;28;20204;-65
2021/08/26 07:22:36;;;;;;;0.57;0.57;;;;;;;13.61;88.79;100271.63;5004539;28;20203;-66
2021/08/26 07:25:05;;;;;;;0.70;0.70;;;;;;;13.62;89.32;100278.72;5002895;28;20714;-65
2021/08/26 07:27:33;;;;;;;0.60;0.60;;;;;;;13.55;89.31;100273.03;4998464;28;20215;-65
2021/08/26 07:30:04;;;;;;;0.77;0.77;;;;;;;13.72;88.45;100279.63;4994891;28;20209;-65
2021/08/26 07:32:32;;;;;;;0.70;0.70;;;;;;;13.78;88.57;100278.25;4980979;28;20199;-65
2021/08/26 07:35:00;;;;;;;0.60;0.60;;;;;;;13.96;88.75;100292.78;5007173;28;20207;-65
2021/08/26 07:37:29;;;;;;;1.80;0.80;;;;;;;13.93;87.69;100288.53;4980649;28;20219;-66
2021/08/26 07:39:57;;;;;;;0.50;0.50;;;;;;;13.98;87.85;100285.41;4990571;28;20686;-65
2021/08/26 07:42:25;;;;;;;0.63;0.63;;;;;;;13.88;88.32;100295.31;4981181;28;20204;-65
2021/08/26 07:44:53;;;;;;;1.27;0.70;;;;;;;13.89;87.63;100295.19;4988983;28;20200;-65
2021/08/26 07:47:22;;;;;;;0.50;0.50;;;;;;;13.82;88.53;100294.03;4995550;28;20602;-65
2021/08/26 07:49:50;;;;;;;2.13;0.63;;;;;;;13.96;88.06;100304.44;4991668;28;20208;-66
2021/08/26 07:52:19;;;;;;;0.80;0.80;;;;;;;13.98;88.16;100298.91;4987191;28;20231;-66
2021/08/26 07:54:47;;;;;;;0.70;0.50;;;;;;;13.98;87.86;100313.25;4984479;28;20203;-66
2021/08/26 07:57:15;;;;;;;0.60;0.60;;;;;;;13.96;88.16;100304.44;4992731;28;20273;-65
2021/08/26 07:59:43;;;;;;;0.70;0.70;;;;;;;14.05;87.58;100310.00;4995257;28;20786;-65
2021/08/26 08:02:11;;;;;;;0.60;0.60;;;;;;;14.11;86.96;100306.78;4991743;28;20214;-66
2021/08/26 08:04:40;;;;;;;0.60;0.60;;;;;;;14.22;87.05;100310.22;4994091;28;20207;-66
2021/08/26 08:07:09;;;;;;;0.73;0.60;;;;;;;14.34;86.89;100313.66;4992043;28;20709;-66
2021/08/26 08:09:37;;;;;;;0.73;0.73;;;;;;;14.46;86.87;100315.28;4995185;28;20254;-65
2021/08/26 08:12:05;;;;;;;2.57;0.70;;;;;;;14.50;86.86;100321.25;4996552;28;20192;-66
2021/08/26 08:14:34;;;;;;;0.70;0.70;;;;;;;14.50;86.96;100324.81;5006854;28;20299;-66
2021/08/26 08:17:02;;;;;;;0.60;0.60;;;;;;;14.59;86.94;100323.97;4990789;28;20365;-65
2021/08/26 08:19:30;;;;;;;0.60;0.60;;;;;;;14.74;86.44;100327.13;4990879;28;20414;-65
2021/08/26 08:22:00;;;;;;;0.60;0.60;;;;;;;14.87;85.62;100330.41;4985130;28;20216;-66
2021/08/26 08:24:28;;;;;;;0.77;0.60;;;;;;;14.95;84.46;100335.09;4996606;28;20213;-66
2021/08/26 08:26:57;;;;;;;0.53;0.53;;;;;;;15.02;85.44;100333.56;4989821;28;20207;-66
2021/08/26 08:29:25;;;;;;;0.80;0.80;;;;;;;14.97;85.50;100333.09;4991438;28;20282;-66
2021/08/26 08:31:53;;;;;;;2.63;0.50;;;;;;;15.12;85.32;100334.41;5004128;28;20273;-66
2021/08/26 08:34:21;;;;;;;0.70;0.70;;;;;;;15.29;83.97;100331.94;4981656;28;20637;-65
2021/08/26 08:36:49;;;;;;;0.70;0.70;;;;;;;15.30;85.28;100330.94;4986230;28;20617;-66
2021/08/26 08:39:19;;;;;;;1.00;1.00;;;;;;;15.57;84.92;100332.88;4986396;28;20227;-65
2021/08/26 08:41:47;;;;;;;0.60;0.60;;;;;;;15.70;84.00;100336.19;4985528;28;20214;-65
2021/08/26 08:44:15;;;;;;;1.10;0.60;;;;;;;15.82;83.84;100337.69;4972857;28;20267;-65
2021/08/26 08:46:48;;;;;;;0.50;0.50;;;;;;;15.94;83.15;100332.97;4984426;28;20258;-65
2021/08/26 08:49:19;;;;;;;0.83;0.60;;;;;;;16.01;82.23;100334.94;5002863;28;20196;-65
2021/08/26 08:51:48;;;;;;;0.70;0.70;;;;;;;15.97;82.56;100316.41;4992390;28;20196;-65
2021/08/26 08:54:18;;;;;;;1.27;0.60;;;;;;;16.15;82.78;100336.28;4987766;28;20248;-65
2021/08/26 08:56:46;;;;;;;0.63;0.60;;;;;;;16.11;82.45;100343.88;4981646;28;20212;-65
2021/08/26 08:59:15;;;;;;;0.80;0.80;;;;;;;16.18;80.97;100341.41;4990859;28;20224;-65
2021/08/26 09:01:50;;;;;;;0.50;0.50;;;;;;;16.34;81.07;100336.19;4990530;28;20200;-64
2021/08/26 09:04:19;;;;;;;0.40;0.40;;;;;;;16.45;80.88;100345.97;4991106;28;20211;-64
2021/08/26 09:06:49;;;;;;;0.50;0.50;;;;;;;16.56;80.37;100347.63;4981057;28;20208;-65
2021/08/26 09:09:21;;;;;;;0.87;0.67;;;;;;;16.58;80.03;100348.34;4991276;28;20587;-64
2021/08/26 09:11:50;;;;;;;0.50;0.50;;;;;;;16.51;80.26;100347.22;4989972;28;20671;-65
2021/08/26 09:14:19;;;;;;;0.87;0.50;;;;;;;16.48;79.67;100356.50;4989251;28;20266;-65
2021/08/26 09:16:51;;;;;;;0.40;0.40;;;;;;;16.54;79.46;100349.66;4981245;28;20730;-64
2021/08/26 09:19:28;;;;;;;0.60;0.60;;;;;;;16.81;80.22;100346.06;4984365;28;20227;-65
2021/08/26 09:21:58;;;;;;;1.57;0.50;;;;;;;17.13;78.35;100349.06;4978768;28;20215;-65
2021/08/26 09:24:43;;;;;;;1.20;0.50;;;;;;;17.53;78.76;100340.44;4990203;28;20203;-64
2021/08/26 09:27:12;;;;;;;1.43;1.00;;;;;;;17.95;76.71;100339.69;4988384;28;20218;-65
2021/08/26 09:30:02;;;;;;;0.50;0.50;;;;;;;18.03;74.01;100337.03;5004271;28;20200;-65
2021/08/26 09:32:34;;;;;;;1.07;0.53;;;;;;;18.13;73.32;100347.78;4981562;28;20204;-64
2021/08/26 09:35:19;;;;;;;0.50;0.50;;;;;;;18.09;72.96;100346.41;5004869;28;20199;-65
2021/08/26 09:37:50;;;;;;;1.37;0.60;;;;;;;18.26;72.37;100359.06;4990992;28;20217;-65
2021/08/26 09:40:23;;;;;;;0.40;0.40;;;;;;;18.17;70.54;100358.19;4989757;28;20779;-64
2021/08/26 09:42:58;;;;;;;0.60;0.60;;;;;;;17.69;69.54;100343.28;4981011;28;20197;-64
2021/08/26 09:45:28;;;;;;;0.30;0.30;;;;;;;17.61;70.51;100354.06;4999342;28;20691;-64
2021/08/26 09:48:07;;;;;;;0.30;0.30;;;;;;;17.71;72.25;100356.69;4989797;28;20666;-64
2021/08/26 09:50:38;;;;;;;0.60;0.60;;;;;;;17.84;72.60;100340.00;4982104;28;20715;-66
2021/08/26 09:53:07;;;;;;;0.60;0.60;;;;;;;17.85;71.33;100336.25;4989573;28;20278;-65
2021/08/26 09:56:02;;;;;;;0.40;0.40;;;;;;;18.04;69.95;100360.47;4989481;28;20723;-65
2021/08/26 09:58:31;;;;;;;0.60;0.60;;;;;;;18.00;70.50;100369.97;4988671;28;20231;-65
2021/08/26 10:01:12;;;;;;;0.70;0.70;;;;;;;17.94;70.65;100371.47;4989978;28;20396;-65
2021/08/26 10:03:41;;;;;;;0.50;0.50;;;;;;;17.73;70.83;100361.97;4988417;28;20231;-65
2021/08/26 10:06:10;;;;;;;0.60;0.60;;;;;;;17.56;71.79;100366.41;4989838;28;20199;-65
2021/08/26 10:08:41;;;;;;;0.60;0.60;;;;;;;17.30;70.98;100360.94;4988498;28;20659;-65
2021/08/26 10:11:11;;;;;;;3.13;1.00;;;;;;;17.42;70.99;100359.69;4970707;28;20204;-65
2021/08/26 10:13:41;;;;;;;0.70;0.70;;;;;;;17.56;70.99;100369.97;4983536;28;20211;-65
2021/08/26 10:16:09;;;;;;;0.70;0.70;;;;;;;17.34;70.87;100370.47;4994590;28;20619;-65
2021/08/26 10:18:37;;;;;;;1.47;0.90;;;;;;;16.73;71.56;100270.88;5001308;28;20215;-65
2021/08/26 10:21:07;;;;;;;0.50;0.50;;;;;;;17.44;72.98;100363.09;4987471;28;20211;-66
2021/08/26 10:23:38;;;;;;;0.70;0.70;;;;;;;17.66;72.11;100368.00;4988523;28;20192;-65
2021/08/26 10:26:07;;;;;;;2.10;0.70;;;;;;;18.00;72.63;100365.38;4979941;28;20222;-66
2021/08/26 10:28:41;;;;;;;4.97;0.80;;;;;;;18.43;71.55;100382.59;4989246;28;20200;-66
2021/08/26 10:31:27;;;;;;;2.83;0.80;;;;;;;18.50;70.16;100366.47;4989527;28;20641;-65
2021/08/26 10:34:13;;;;;;;2.43;0.80;;;;;;;18.46;71.66;100381.41;4989095;28;20203;-65
2021/08/26 10:36:46;;;;;;;0.80;0.80;;;;;;;18.81;70.07;100380.38;4986053;28;20197;-65
2021/08/26 10:39:28;;;;;;;0.87;0.87;;;;;;;18.78;69.27;100370.69;4995683;28;20215;-65
2021/08/26 10:41:57;;;;;;;0.80;0.80;;;;;;;18.77;68.76;100379.84;4989215;28;20243;-65
2021/08/26 10:45:01;;;;;;;0.87;0.87;;;;;;;18.70;68.00;100377.97;4986902;28;20201;-66
2021/08/26 10:48:03;;;;;;;1.17;1.00;;;;;;;18.64;67.97;100378.59;4986189;28;20670;-66
2021/08/26 10:50:35;;;;;;;2.20;0.97;;;;;;;18.51;68.55;100373.59;4971032;28;20205;-65
2021/08/26 10:53:06;;;;;;;2.97;1.00;;;;;;;18.64;68.17;100373.16;4985867;28;20319;-65
2021/08/26 10:55:39;;;;;;;1.20;1.10;;;;;;;18.79;68.18;100377.81;4985726;28;20196;-66
2021/08/26 10:58:34;;;;;;;1.10;1.10;;;;;;;18.73;68.45;100381.22;4988116;28;20219;-66
2021/08/26 11:01:04;;;;;;;1.10;1.00;;;;;;;18.66;68.60;100379.28;4991412;28;20633;-66
2021/08/26 11:03:59;;;;;;;0.80;0.80;;;;;;;18.69;68.37;100355.34;4991807;28;20232;-65
2021/08/26 11:06:43;;;;;;;2.30;1.00;;;;;;;18.47;68.66;100373.09;4979691;28;20208;-65
2021/08/26 11:09:38;;;;;;;2.27;1.20;;;;;;;18.51;68.28;100381.78;4988909;28;20263;-66
2021/08/26 11:12:25;;;;;;;1.40;1.30;;;;;;;18.75;67.81;100381.88;4988723;28;20204;-66
2021/08/26 11:14:54;;;;;;;1.47;1.00;;;;;;;18.88;68.22;100374.09;4992158;28;20208;-65
2021/08/26 11:17:37;;;;;;;1.00;1.00;;;;;;;18.73;68.38;100343.13;4992748;28;20204;-66
2021/08/26 11:20:30;;;;;;;2.57;1.10;;;;;;;18.67;68.49;100389.16;4991963;28;20204;-65
2021/08/26 11:23:12;;;;;;;0.80;0.80;;;;;;;18.66;68.54;100390.16;4992457;28;20200;-65
2021/08/26 11:25:40;;;;;;;1.07;1.00;;;;;;;18.45;67.42;100386.00;4992377;28;20658;-65
2021/08/26 11:28:29;;;;;;;1.13;1.03;;;;;;;18.34;68.55;100389.00;4992599;28;20204;-65
2021/08/26 11:31:15;;;;;;;0.73;0.73;;;;;;;18.06;68.83;100382.03;4984026;28;20258;-65
2021/08/26 11:33:44;;;;;;;0.87;0.83;;;;;;;17.78;70.15;100387.66;4988737;28;20250;-65
2021/08/26 11:36:13;;;;;;;1.37;1.23;;;;;;;17.72;71.14;100382.00;4992612;28;20211;-65
2021/08/26 11:38:48;;;;;;;1.00;1.00;;;;;;;17.87;71.91;100378.56;4995286;28;20210;-65
2021/08/26 11:41:16;;;;;;;0.93;0.93;;;;;;;17.85;71.05;100341.69;4992125;28;20262;-66